Time;durP1;ratioP1;P1;durP2;ratioP2;P2;SDS_P1;SDS_P2;PMS_P1;PMS_P2;Temp;Humidity;BMP_temperature;BMP_pressure;BME280_temperature;BME280_humidity;BME280_pressure;Samples;Min_cycle;Max_cycle;Signal;HPM_P1;HPM_P2
2023/06/09 00:02:00;;;;;;;7.53;4.95;;;20.30;99.90;;;;;;4161266;28;20052;-61
2023/06/09 00:04:06;;;;;;;5.03;4.00;;;20.30;99.90;;;;;;4159449;28;20033;-60
2023/06/09 00:06:10;;;;;;;4.93;3.95;;;20.40;99.90;;;;;;4160364;28;20048;-61
2023/06/09 00:08:11;;;;;;;4.57;3.53;;;20.40;99.90;;;;;;4165302;28;20048;-61
2023/06/09 00:10:12;;;;;;;5.25;4.18;;;20.50;99.90;;;;;;4158924;28;20125;-61
2023/06/09 00:12:13;;;;;;;4.65;3.83;;;20.50;99.90;;;;;;4162286;28;20405;-61
2023/06/09 00:14:14;;;;;;;4.85;3.80;;;20.60;99.90;;;;;;4164351;28;20313;-60
2023/06/09 00:16:15;;;;;;;6.75;4.20;;;20.70;99.90;;;;;;4164224;28;20597;-61
2023/06/09 00:18:16;;;;;;;4.72;3.50;;;20.70;99.90;;;;;;4165114;28;20401;-61
2023/06/09 00:20:17;;;;;;;5.10;3.50;;;20.80;99.90;;;;;;4162219;28;20052;-61
2023/06/09 00:22:19;;;;;;;6.07;3.80;;;20.80;99.90;;;;;;4164554;28;20057;-61
2023/06/09 00:24:22;;;;;;;4.88;3.50;;;20.90;99.90;;;;;;4166801;28;20029;-61
2023/06/09 00:26:23;;;;;;;7.10;3.97;;;20.90;99.90;;;;;;4156623;28;20373;-63
2023/06/09 00:28:24;;;;;;;5.50;4.10;;;21.00;99.90;;;;;;4156893;28;20079;-62
2023/06/09 00:30:24;;;;;;;7.80;4.13;;;21.00;99.90;;;;;;4167095;28;20056;-61
2023/06/09 00:32:27;;;;;;;6.10;3.78;;;21.10;99.90;;;;;;4162760;28;20559;-61
2023/06/09 00:34:27;;;;;;;5.43;3.97;;;21.10;99.90;;;;;;4169346;28;20029;-61
2023/06/09 00:36:28;;;;;;;4.82;3.90;;;21.10;99.90;;;;;;4163245;28;20133;-61
2023/06/09 00:38:29;;;;;;;5.32;3.88;;;21.10;99.90;;;;;;4161923;28;20030;-61
2023/06/09 00:40:29;;;;;;;5.05;3.33;;;21.10;99.90;;;;;;4157318;28;20041;-61
2023/06/09 00:42:30;;;;;;;5.30;4.00;;;21.10;99.90;;;;;;4164438;28;20034;-61
2023/06/09 00:44:31;;;;;;;5.05;3.70;;;21.10;99.90;;;;;;4152311;28;20041;-61
2023/06/09 00:46:32;;;;;;;5.00;3.45;;;21.10;99.90;;;;;;4158154;28;20425;-61
2023/06/09 00:48:36;;;;;;;6.88;4.13;;;21.10;99.90;;;;;;4155936;28;20052;-60
2023/06/09 00:50:37;;;;;;;6.15;4.05;;;21.10;99.90;;;;;;4162759;28;20395;-60
2023/06/09 00:52:40;;;;;;;6.38;4.43;;;21.10;99.90;;;;;;4165551;28;20033;-61
2023/06/09 00:54:41;;;;;;;6.03;4.35;;;21.10;99.90;;;;;;4157565;28;20045;-60
2023/06/09 00:56:42;;;;;;;8.00;4.65;;;21.00;99.90;;;;;;4163862;28;20099;-61
2023/06/09 00:58:43;;;;;;;7.18;4.15;;;21.00;99.90;;;;;;4161562;28;20128;-61
2023/06/09 01:00:43;;;;;;;8.07;4.53;;;21.10;99.90;;;;;;4152721;28;20088;-61
2023/06/09 01:02:44;;;;;;;6.88;4.38;;;21.00;99.90;;;;;;4166607;28;20053;-61
2023/06/09 01:04:49;;;;;;;5.00;4.15;;;21.00;99.90;;;;;;4164096;28;20505;-61
2023/06/09 01:07:07;;;;;;;7.05;4.38;;;21.00;99.90;;;;;;4163923;28;20055;-62
2023/06/09 01:09:11;;;;;;;6.88;4.25;;;21.00;99.90;;;;;;4156020;28;20435;-61
2023/06/09 01:11:28;;;;;;;6.90;4.22;;;21.00;99.90;;;;;;4153313;28;20057;-61
2023/06/09 01:13:59;;;;;;;6.07;4.38;;;21.00;99.90;;;;;;4158285;28;20045;-61
2023/06/09 01:16:09;;;;;;;5.38;3.72;;;21.00;99.90;;;;;;4154819;28;20046;-61
2023/06/09 01:18:13;;;;;;;7.53;4.50;;;21.00;99.90;;;;;;4160666;28;20041;-61
2023/06/09 01:20:16;;;;;;;6.75;4.07;;;21.00;99.90;;;;;;4166605;28;20053;-61
2023/06/09 01:22:35;;;;;;;5.82;4.22;;;20.90;99.90;;;;;;4170827;28;20037;-61
2023/06/09 01:25:04;;;;;;;7.07;4.10;;;20.90;99.90;;;;;;4162040;28;20458;-60
2023/06/09 01:27:07;;;;;;;5.80;3.85;;;20.80;99.90;;;;;;4160369;28;20128;-61
2023/06/09 01:29:10;;;;;;;6.60;4.05;;;20.80;99.90;;;;;;4163514;28;20459;-60
2023/06/09 01:31:15;;;;;;;7.80;4.55;;;20.70;99.90;;;;;;4162197;28;20047;-61
2023/06/09 01:33:20;;;;;;;6.70;4.32;;;20.70;99.90;;;;;;4170466;28;20322;-60
2023/06/09 01:35:21;;;;;;;5.10;3.88;;;20.70;99.90;;;;;;4165892;28;20083;-60
2023/06/09 01:37:22;;;;;;;8.40;3.72;;;20.60;99.90;;;;;;4163644;28;20454;-61
2023/06/09 01:39:22;;;;;;;6.47;4.13;;;20.50;99.90;;;;;;4165905;28;20036;-61
2023/06/09 01:41:25;;;;;;;6.07;3.80;;;20.50;99.90;;;;;;4161208;28;20049;-61
2023/06/09 01:43:25;;;;;;;6.97;4.13;;;20.60;99.90;;;;;;4160231;28;20048;-61
2023/06/09 01:45:26;;;;;;;9.07;4.32;;;20.60;99.90;;;;;;4162277;28;20034;-61
2023/06/09 01:47:27;;;;;;;5.72;4.05;;;20.50;99.90;;;;;;4164170;28;20443;-61
2023/06/09 01:49:42;;;;;;;7.25;3.88;;;20.50;99.90;;;;;;4169097;28;20029;-61
2023/06/09 01:51:59;;;;;;;8.68;4.13;;;20.50;99.90;;;;;;4165527;28;20040;-61
2023/06/09 01:54:07;;;;;;;5.68;3.42;;;20.40;99.90;;;;;;4160111;28;20037;-60
2023/06/09 01:56:34;;;;;;;4.97;3.72;;;20.40;99.90;;;;;;4161582;28;20045;-60
2023/06/09 01:58:43;;;;;;;5.93;4.00;;;20.40;99.90;;;;;;4156584;28;20030;-60
2023/06/09 02:00:47;;;;;;;7.28;3.85;;;20.30;99.90;;;;;;4163460;28;20049;-61
2023/06/09 02:02:52;;;;;;;6.32;3.90;;;20.30;99.90;;;;;;4163576;28;20484;-61
2023/06/09 02:04:55;;;;;;;8.10;3.95;;;20.20;99.90;;;;;;4163118;28;20041;-61
2023/06/09 02:06:56;;;;;;;8.43;3.97;;;20.00;99.90;;;;;;4164475;28;20116;-60
2023/06/09 02:08:57;;;;;;;7.70;3.97;;;19.90;99.90;;;;;;4165759;28;20037;-60
2023/06/09 02:10:58;;;;;;;9.68;4.78;;;19.80;99.90;;;;;;4166123;28;20087;-61
2023/06/09 02:13:14;;;;;;;8.00;4.50;;;19.70;99.90;;;;;;4167858;28;20052;-61
2023/06/09 02:15:14;;;;;;;9.38;4.20;;;19.40;99.90;;;;;;4165981;28;20061;-61
2023/06/09 02:17:15;;;;;;;7.60;4.43;;;19.40;99.90;;;;;;4164493;28;20175;-60
2023/06/09 02:19:16;;;;;;;7.28;3.95;;;19.20;99.90;;;;;;4160158;28;20116;-60
2023/06/09 02:21:17;;;;;;;5.57;3.55;;;19.20;99.90;;;;;;4161911;28;20111;-61
2023/06/09 02:23:19;;;;;;;7.90;3.70;;;19.20;99.90;;;;;;4164712;28;20090;-60
2023/06/09 02:25:20;;;;;;;4.80;3.60;;;19.10;99.90;;;;;;4163028;28;20042;-60
2023/06/09 02:27:21;;;;;;;7.07;3.92;;;19.10;99.90;;;;;;4170527;28;20048;-60
2023/06/09 02:29:23;;;;;;;6.53;4.00;;;19.10;99.90;;;;;;4167727;28;20465;-61
2023/06/09 02:31:24;;;;;;;4.85;3.45;;;19.20;99.90;;;;;;4166611;28;20084;-61
2023/06/09 02:33:25;;;;;;;6.80;4.20;;;19.20;99.90;;;;;;4163194;28;20423;-61
2023/06/09 02:35:28;;;;;;;7.63;4.03;;;19.10;99.90;;;;;;4160469;28;20045;-63
2023/06/09 02:37:29;;;;;;;7.30;4.68;;;19.00;99.90;;;;;;4163361;28;20103;-61
2023/06/09 02:39:30;;;;;;;5.60;3.78;;;19.00;99.90;;;;;;4162112;28;20041;-61
2023/06/09 02:41:31;;;;;;;7.18;4.43;;;19.00;99.90;;;;;;4160045;28;20388;-61
2023/06/09 02:43:31;;;;;;;8.07;4.57;;;19.00;99.90;;;;;;4166759;28;20030;-61
2023/06/09 02:45:33;;;;;;;9.18;4.72;;;19.00;99.90;;;;;;4161780;28;20025;-60
2023/06/09 02:47:33;;;;;;;9.75;5.22;;;18.80;99.90;;;;;;4162174;28;20033;-61
2023/06/09 02:49:34;;;;;;;5.78;4.18;;;18.70;99.90;;;;;;4165545;28;20120;-60
2023/06/09 02:51:36;;;;;;;6.00;4.00;;;18.60;99.90;;;;;;4162983;28;20464;-60
2023/06/09 02:53:36;;;;;;;8.35;4.88;;;18.60;99.90;;;;;;4167561;28;20037;-60
2023/06/09 02:55:38;;;;;;;9.18;4.03;;;18.60;99.90;;;;;;4163923;28;20100;-60
2023/06/09 02:57:38;;;;;;;7.57;3.90;;;18.60;99.90;;;;;;4160225;28;20033;-60
2023/06/09 02:59:39;;;;;;;5.05;3.60;;;18.60;99.90;;;;;;4158849;28;20034;-60
2023/06/09 03:01:42;;;;;;;6.03;4.00;;;18.70;99.90;;;;;;4161091;28;20049;-60
2023/06/09 03:03:44;;;;;;;7.22;4.32;;;18.60;99.90;;;;;;4158349;28;20034;-60
2023/06/09 03:05:45;;;;;;;5.30;3.90;;;18.60;99.90;;;;;;4160480;28;20052;-60
2023/06/09 03:07:46;;;;;;;7.53;4.35;;;18.70;99.90;;;;;;4163700;28;20124;-60
2023/06/09 03:09:46;;;;;;;6.70;4.40;;;18.70;99.90;;;;;;4158963;28;20115;-61
2023/06/09 03:11:47;;;;;;;4.93;3.80;;;18.70;99.90;;;;;;4159047;28;20655;-60
2023/06/09 03:13:48;;;;;;;6.32;3.90;;;18.70;99.90;;;;;;4162425;28;20391;-60
2023/06/09 03:15:50;;;;;;;7.82;4.32;;;18.70;99.90;;;;;;4163620;28;20454;-61
2023/06/09 03:17:50;;;;;;;5.95;3.92;;;18.70;99.90;;;;;;4162564;28;20045;-60
2023/06/09 03:19:51;;;;;;;5.95;3.88;;;18.80;99.90;;;;;;4165688;28;20052;-60
2023/06/09 03:21:52;;;;;;;6.95;3.90;;;18.80;99.90;;;;;;4162123;28;20037;-62
2023/06/09 03:23:52;;;;;;;6.45;3.60;;;18.90;99.90;;;;;;4161938;28;20570;-61
2023/06/09 03:25:53;;;;;;;6.38;3.92;;;18.90;99.90;;;;;;4162175;28;20080;-61
2023/06/09 03:27:54;;;;;;;6.20;4.25;;;19.00;99.90;;;;;;4163067;28;20037;-61
2023/06/09 03:29:54;;;;;;;5.57;3.55;;;19.00;99.90;;;;;;4162693;28;20044;-60
2023/06/09 03:31:55;;;;;;;7.72;3.60;;;19.00;99.90;;;;;;4167709;28;20905;-61
2023/06/09 03:33:56;;;;;;;5.60;3.53;;;19.10;99.90;;;;;;4163903;28;20045;-60
2023/06/09 03:35:57;;;;;;;7.72;3.65;;;19.10;99.90;;;;;;4164993;28;20136;-62
2023/06/09 03:37:57;;;;;;;5.85;3.80;;;19.10;99.90;;;;;;4166195;28;20486;-61
2023/06/09 03:39:58;;;;;;;6.35;4.10;;;19.20;99.90;;;;;;4168634;28;20059;-61
2023/06/09 03:41:58;;;;;;;6.38;4.07;;;19.20;99.90;;;;;;4163038;28;20104;-61
2023/06/09 03:43:59;;;;;;;6.60;4.03;;;19.30;99.90;;;;;;4159002;28;20037;-60
2023/06/09 03:46:00;;;;;;;6.45;3.85;;;19.30;99.90;;;;;;4160999;28;20091;-61
2023/06/09 03:48:00;;;;;;;6.70;3.58;;;19.30;99.90;;;;;;4167500;28;20673;-60
2023/06/09 03:50:02;;;;;;;8.52;4.15;;;19.30;99.90;;;;;;4166441;28;20385;-60
2023/06/09 03:52:06;;;;;;;6.40;4.25;;;19.40;99.90;;;;;;4164439;28;20044;-61
2023/06/09 03:54:06;;;;;;;6.57;3.90;;;19.30;99.90;;;;;;4166360;28;20383;-61
2023/06/09 03:56:07;;;;;;;6.93;4.32;;;19.30;99.90;;;;;;4165926;28;20065;-60
2023/06/09 03:58:10;;;;;;;8.00;4.30;;;19.30;99.90;;;;;;4165305;28;20037;-61
2023/06/09 04:00:11;;;;;;;6.30;4.18;;;19.30;99.90;;;;;;4167435;28;20480;-61
2023/06/09 04:02:11;;;;;;;10.50;4.40;;;19.30;99.90;;;;;;4164347;28;21742;-60
2023/06/09 04:04:12;;;;;;;8.35;4.47;;;19.30;99.90;;;;;;4158907;28;20133;-61
2023/06/09 04:06:13;;;;;;;7.95;4.57;;;19.20;99.90;;;;;;4159909;28;20048;-60
2023/06/09 04:08:13;;;;;;;6.38;4.03;;;19.10;99.90;;;;;;4161950;28;20499;-60
2023/06/09 04:10:14;;;;;;;6.15;4.05;;;19.10;99.90;;;;;;4162685;28;20534;-60
2023/06/09 04:12:14;;;;;;;5.63;3.35;;;19.00;99.90;;;;;;4164917;28;20041;-61
2023/06/09 04:14:16;;;;;;;6.75;4.05;;;19.00;99.90;;;;;;4165869;28;20108;-60
2023/06/09 04:16:16;;;;;;;8.82;4.13;;;19.00;99.90;;;;;;4164149;28;20070;-60
2023/06/09 04:18:19;;;;;;;5.75;4.10;;;19.10;99.90;;;;;;4162281;28;20116;-60
2023/06/09 04:20:22;;;;;;;7.43;4.47;;;19.10;99.90;;;;;;4157136;28;20489;-60
2023/06/09 04:22:23;;;;;;;8.00;4.32;;;19.10;99.90;;;;;;4160495;28;20124;-60
2023/06/09 04:24:23;;;;;;;5.47;3.95;;;19.20;99.90;;;;;;4160801;28;20061;-60
2023/06/09 04:26:25;;;;;;;6.97;4.22;;;19.20;99.90;;;;;;4161290;28;20036;-61
2023/06/09 04:28:28;;;;;;;6.45;4.47;;;19.30;99.90;;;;;;4160328;28;20489;-61
2023/06/09 04:30:29;;;;;;;7.07;4.05;;;19.20;99.90;;;;;;4160716;28;20488;-60
2023/06/09 04:32:32;;;;;;;7.40;4.15;;;19.20;99.90;;;;;;4162207;28;20045;-60
2023/06/09 04:34:39;;;;;;;6.50;4.28;;;19.20;99.90;;;;;;4166718;28;20041;-61
2023/06/09 04:36:40;;;;;;;7.50;3.50;;;19.30;99.90;;;;;;4157299;28;20084;-61
2023/06/09 04:38:41;;;;;;;5.47;4.18;;;19.20;99.90;;;;;;4165196;28;20442;-60
2023/06/09 04:40:45;;;;;;;7.18;4.30;;;19.30;99.90;;;;;;4161822;28;20122;-60
2023/06/09 04:42:45;;;;;;;5.97;4.20;;;19.30;99.90;;;;;;4164339;28;20047;-60
2023/06/09 04:44:47;;;;;;;7.22;4.10;;;19.30;99.90;;;;;;4170406;28;20053;-61
2023/06/09 04:46:49;;;;;;;6.27;4.03;;;19.40;99.90;;;;;;4164484;28;20503;-60
2023/06/09 04:48:51;;;;;;;7.05;4.57;;;19.40;99.90;;;;;;4163623;28;20423;-63
2023/06/09 04:50:52;;;;;;;6.57;4.03;;;19.50;99.90;;;;;;4160979;28;20653;-63
2023/06/09 04:52:52;;;;;;;6.70;4.72;;;19.50;99.90;;;;;;4166426;28;20045;-64
2023/06/09 04:54:53;;;;;;;6.10;4.00;;;19.50;99.90;;;;;;4166724;28;20044;-64
2023/06/09 04:56:53;;;;;;;7.63;4.63;;;19.60;99.90;;;;;;4162888;28;20080;-64
2023/06/09 04:58:56;;;;;;;7.10;4.97;;;19.60;99.90;;;;;;4162236;28;20041;-63
2023/06/09 05:00:57;;;;;;;8.48;4.63;;;19.70;99.90;;;;;;4164953;28;20046;-63
2023/06/09 05:02:57;;;;;;;8.68;4.68;;;19.70;99.90;;;;;;4167703;28;20135;-64
2023/06/09 05:04:58;;;;;;;8.75;5.03;;;19.70;99.90;;;;;;4168544;28;20181;-66
2023/06/09 05:06:58;;;;;;;6.63;4.63;;;19.70;99.90;;;;;;4166390;28;20035;-64
2023/06/09 05:08:59;;;;;;;10.73;5.55;;;19.80;99.90;;;;;;4163779;28;20038;-63
2023/06/09 05:11:00;;;;;;;9.13;5.10;;;19.80;99.90;;;;;;4163333;28;20036;-64
2023/06/09 05:13:00;;;;;;;6.32;4.30;;;19.80;99.90;;;;;;4167121;28;20041;-63
2023/06/09 05:15:02;;;;;;;9.65;5.15;;;19.80;99.90;;;;;;4162250;28;20026;-63
2023/06/09 05:17:02;;;;;;;9.73;5.13;;;19.80;99.90;;;;;;4166316;28;20040;-63
2023/06/09 05:19:03;;;;;;;8.38;5.00;;;19.70;99.90;;;;;;4168741;28;20041;-63
2023/06/09 05:21:04;;;;;;;6.88;4.85;;;19.70;99.90;;;;;;4164822;28;20041;-63
2023/06/09 05:23:05;;;;;;;9.00;5.25;;;19.70;99.90;;;;;;4165187;28;20083;-63
2023/06/09 05:25:13;;;;;;;11.02;5.85;;;19.60;99.90;;;;;;4145837;28;20045;-63
2023/06/09 05:27:13;;;;;;;9.52;5.68;;;19.60;99.90;;;;;;4145916;28;20041;-63
2023/06/09 05:29:14;;;;;;;9.00;5.30;;;19.60;99.90;;;;;;4165175;28;20116;-63
2023/06/09 05:31:16;;;;;;;8.82;5.18;;;19.60;99.90;;;;;;4166687;28;20041;-63
2023/06/09 05:33:17;;;;;;;6.95;5.22;;;19.50;99.90;;;;;;4167123;28;20041;-63
2023/06/09 05:35:18;;;;;;;7.18;4.68;;;19.60;99.90;;;;;;4162285;28;20258;-63
2023/06/09 05:37:18;;;;;;;10.10;6.07;;;19.60;99.90;;;;;;4165995;28;20839;-62
2023/06/09 05:39:19;;;;;;;11.48;6.80;;;19.60;99.90;;;;;;4162673;28;20041;-63
2023/06/09 05:41:20;;;;;;;7.50;5.43;;;19.60;99.90;;;;;;4161699;28;20374;-64
2023/06/09 05:43:21;;;;;;;12.98;7.05;;;19.60;99.90;;;;;;4166433;28;20103;-62
2023/06/09 05:45:21;;;;;;;10.95;6.32;;;19.50;99.90;;;;;;4162005;28;20080;-63
2023/06/09 05:47:22;;;;;;;9.93;6.43;;;19.60;99.90;;;;;;4168403;28;20038;-63
2023/06/09 05:49:23;;;;;;;11.27;7.20;;;19.80;99.90;;;;;;4165018;28;20124;-63
2023/06/09 05:51:23;;;;;;;11.45;6.88;;;20.00;99.90;;;;;;4163350;28;20455;-65
2023/06/09 05:53:24;;;;;;;13.02;6.47;;;20.40;99.90;;;;;;4165250;28;20528;-64
2023/06/09 05:55:25;;;;;;;9.13;5.53;;;20.70;99.90;;;;;;4166176;28;20608;-64
2023/06/09 05:57:29;;;;;;;9.50;5.30;;;21.00;99.90;;;;;;4163953;28;20030;-64
2023/06/09 05:59:32;;;;;;;8.15;5.53;;;21.40;99.90;;;;;;4162305;28;20409;-64
2023/06/09 06:01:34;;;;;;;9.82;5.10;;;21.90;99.90;;;;;;4163227;28;20049;-64
2023/06/09 06:03:35;;;;;;;7.97;5.05;;;22.40;99.90;;;;;;4169820;28;20037;-64
2023/06/09 06:05:35;;;;;;;8.10;4.80;;;22.80;99.90;;;;;;4164925;28;20025;-64
2023/06/09 06:07:36;;;;;;;8.70;5.95;;;23.20;99.90;;;;;;4164306;28;20067;-64
2023/06/09 06:09:37;;;;;;;9.05;5.65;;;23.60;99.90;;;;;;4151891;28;20043;-64
2023/06/09 06:11:38;;;;;;;8.73;5.80;;;23.90;99.90;;;;;;4157915;28;20043;-65
2023/06/09 06:13:38;;;;;;;9.18;5.60;;;24.30;99.90;;;;;;4167003;28;20043;-65
2023/06/09 06:15:39;;;;;;;10.05;5.40;;;24.70;99.90;;;;;;4159557;28;20391;-65
2023/06/09 06:17:39;;;;;;;6.55;4.53;;;25.00;99.90;;;;;;4163789;28;20467;-65
2023/06/09 06:19:40;;;;;;;9.93;5.40;;;25.40;99.90;;;;;;4164194;28;20040;-65
2023/06/09 06:21:42;;;;;;;7.05;4.82;;;25.70;99.90;;;;;;4164117;28;20064;-65
2023/06/09 06:23:42;;;;;;;9.30;6.20;;;26.00;99.90;;;;;;4169789;28;20066;-65
2023/06/09 06:25:43;;;;;;;9.85;6.03;;;26.20;99.90;;;;;;4167674;28;20331;-65
2023/06/09 06:27:43;;;;;;;9.05;5.32;;;26.30;99.90;;;;;;4163161;28;20171;-65
2023/06/09 06:29:44;;;;;;;8.57;5.60;;;26.30;99.40;;;;;;4162866;28;20045;-65
2023/06/09 06:31:48;;;;;;;7.95;5.53;;;26.30;99.70;;;;;;4146355;28;21532;-65
2023/06/09 06:33:48;;;;;;;10.35;5.85;;;26.30;99.90;;;;;;4157019;28;20057;-66
2023/06/09 06:35:49;;;;;;;10.75;5.78;;;26.40;98.60;;;;;;4156334;28;20041;-66
2023/06/09 06:37:50;;;;;;;10.55;5.90;;;26.10;98.40;;;;;;4154796;28;20033;-66
2023/06/09 06:39:51;;;;;;;8.77;4.95;;;26.30;98.80;;;;;;4156733;28;20029;-66
2023/06/09 06:41:51;;;;;;;9.90;5.80;;;26.30;98.80;;;;;;4151722;28;20413;-66
2023/06/09 06:43:53;;;;;;;7.35;4.90;;;26.30;97.70;;;;;;4157136;28;20496;-66
2023/06/09 06:45:53;;;;;;;10.05;5.30;;;26.30;98.40;;;;;;4158092;28;20448;-66
2023/06/09 06:47:54;;;;;;;7.93;5.07;;;26.10;97.00;;;;;;4158512;28;20137;-66
2023/06/09 06:49:55;;;;;;;8.13;4.97;;;26.10;97.00;;;;;;4158364;28;20038;-66
2023/06/09 06:51:56;;;;;;;7.97;5.68;;;26.10;97.30;;;;;;4158332;28;20041;-67
2023/06/09 06:53:56;;;;;;;8.85;5.47;;;25.90;97.50;;;;;;4156529;28;20132;-67
2023/06/09 06:55:57;;;;;;;10.52;5.07;;;25.90;97.00;;;;;;4157213;28;20044;-67
2023/06/09 06:57:57;;;;;;;8.00;5.22;;;26.00;97.00;;;;;;4160223;28;20045;-66
2023/06/09 06:59:58;;;;;;;10.25;4.95;;;26.00;97.10;;;;;;4158882;28;20704;-66
2023/06/09 07:01:59;;;;;;;9.05;5.25;;;26.00;97.20;;;;;;4156186;28;20084;-66
2023/06/09 07:04:00;;;;;;;6.82;5.20;;;25.70;97.00;;;;;;4157451;28;20504;-66
2023/06/09 07:06:04;;;;;;;7.50;4.78;;;25.90;98.10;;;;;;4154216;28;20049;-66
2023/06/09 07:08:04;;;;;;;8.45;4.63;;;25.90;96.80;;;;;;4160108;28;20120;-66
2023/06/09 07:10:08;;;;;;;11.40;5.43;;;26.00;97.00;;;;;;4161752;28;20504;-66
2023/06/09 07:12:09;;;;;;;7.32;4.85;;;25.70;97.10;;;;;;4168706;28;20098;-66
2023/06/09 07:14:10;;;;;;;7.28;5.10;;;25.80;97.40;;;;;;4166004;28;20041;-66
2023/06/09 07:16:10;;;;;;;7.15;4.72;;;25.70;96.70;;;;;;4162232;28;20052;-66
2023/06/09 07:18:11;;;;;;;8.38;5.35;;;25.70;97.70;;;;;;4161164;28;20573;-66
2023/06/09 07:20:12;;;;;;;7.43;4.90;;;25.70;97.00;;;;;;4162580;28;20037;-67
2023/06/09 07:22:12;;;;;;;7.10;4.45;;;25.70;97.50;;;;;;4177224;28;20551;-66
2023/06/09 07:24:13;;;;;;;6.25;4.55;;;25.80;97.40;;;;;;4163886;28;20088;-66
2023/06/09 07:26:14;;;;;;;8.40;4.90;;;25.90;97.30;;;;;;4162743;28;20040;-66
2023/06/09 07:28:15;;;;;;;11.82;5.85;;;25.80;96.70;;;;;;4164246;28;20042;-66
2023/06/09 07:30:16;;;;;;;9.77;4.85;;;25.80;96.10;;;;;;4162087;28;20052;-66
2023/06/09 07:32:16;;;;;;;8.15;5.38;;;25.90;96.40;;;;;;4162962;28;20511;-65
2023/06/09 07:34:17;;;;;;;7.18;4.30;;;26.00;96.40;;;;;;4162649;28;20115;-66
2023/06/09 07:36:19;;;;;;;6.68;4.88;;;26.00;96.20;;;;;;4158573;28;20537;-65
2023/06/09 07:38:21;;;;;;;10.02;5.72;;;26.00;97.40;;;;;;4165582;28;20052;-65
2023/06/09 07:40:21;;;;;;;10.60;5.93;;;26.00;96.40;;;;;;4158956;28;20076;-66
2023/06/09 07:42:22;;;;;;;8.70;5.53;;;26.00;97.30;;;;;;4163588;28;20046;-66
2023/06/09 07:44:23;;;;;;;11.77;6.07;;;25.90;96.90;;;;;;4162570;28;20045;-66
2023/06/09 07:46:24;;;;;;;9.73;5.43;;;25.90;96.80;;;;;;4162907;28;20044;-66
2023/06/09 07:48:25;;;;;;;9.90;5.22;;;26.00;97.30;;;;;;4157106;28;20751;-65
2023/06/09 07:50:26;;;;;;;8.35;5.43;;;26.00;96.70;;;;;;4158200;28;20041;-66
2023/06/09 07:52:26;;;;;;;7.93;4.53;;;26.10;96.80;;;;;;4158508;28;20056;-66
2023/06/09 07:54:27;;;;;;;6.47;4.50;;;26.20;95.30;;;;;;4158186;28;20064;-65
2023/06/09 07:56:28;;;;;;;12.60;4.97;;;26.30;95.90;;;;;;4159737;28;20115;-66
2023/06/09 07:58:29;;;;;;;8.65;5.20;;;26.40;95.50;;;;;;4158799;28;20638;-65
2023/06/09 08:00:29;;;;;;;6.95;5.20;;;26.40;94.80;;;;;;4157025;28;20132;-67
2023/06/09 08:02:31;;;;;;;8.00;4.50;;;26.50;94.70;;;;;;4161074;28;20077;-66
2023/06/09 08:04:31;;;;;;;7.33;5.17;;;26.50;95.00;;;;;;4158157;28;20034;-66
2023/06/09 08:06:33;;;;;;;10.13;4.78;;;26.50;94.70;;;;;;4163678;28;20033;-66
2023/06/09 08:08:34;;;;;;;8.10;4.53;;;26.60;94.70;;;;;;4161956;28;20041;-65
2023/06/09 08:10:35;;;;;;;7.18;5.13;;;26.70;95.10;;;;;;4160750;28;20833;-65
2023/06/09 08:12:37;;;;;;;8.88;4.90;;;26.70;95.40;;;;;;4163796;28;20048;-65
2023/06/09 08:14:37;;;;;;;8.13;5.00;;;26.80;95.30;;;;;;4159989;28;20032;-65
2023/06/09 08:16:38;;;;;;;6.50;4.63;;;26.80;94.80;;;;;;4155320;28;20465;-65
2023/06/09 08:18:39;;;;;;;6.88;4.43;;;26.90;94.80;;;;;;4164523;28;20049;-66
2023/06/09 08:20:40;;;;;;;6.97;4.45;;;27.00;93.90;;;;;;4156067;28;20052;-66
2023/06/09 08:22:41;;;;;;;10.02;5.00;;;27.10;93.90;;;;;;4164337;28;20052;-65
2023/06/09 08:24:42;;;;;;;6.40;4.63;;;27.10;94.00;;;;;;4162223;28;20033;-66
2023/06/09 08:26:43;;;;;;;7.22;3.72;;;27.20;93.50;;;;;;4156598;28;20133;-65
2023/06/09 08:28:44;;;;;;;7.05;4.57;;;27.20;93.10;;;;;;4160448;28;20514;-65
2023/06/09 08:30:44;;;;;;;9.20;4.68;;;27.20;93.60;;;;;;4157682;28;20044;-66
2023/06/09 08:32:46;;;;;;;6.97;4.72;;;27.30;92.70;;;;;;4160284;28;20493;-65
2023/06/09 08:34:47;;;;;;;7.95;5.07;;;27.30;92.40;;;;;;4157536;28;20065;-65
2023/06/09 08:36:47;;;;;;;6.82;4.82;;;27.30;92.90;;;;;;4157404;28;20151;-66
2023/06/09 08:38:48;;;;;;;6.90;4.10;;;27.30;93.10;;;;;;4161201;28;20846;-65
2023/06/09 08:40:50;;;;;;;5.97;3.83;;;27.40;94.50;;;;;;4151548;28;20048;-66
2023/06/09 08:42:54;;;;;;;7.88;4.85;;;27.40;94.20;;;;;;4159488;28;20067;-65
2023/06/09 08:45:01;;;;;;;5.90;4.18;;;27.40;93.60;;;;;;4157417;28;20050;-65
2023/06/09 08:47:03;;;;;;;11.82;4.82;;;27.50;94.60;;;;;;4156411;28;20566;-66
2023/06/09 08:49:04;;;;;;;5.38;4.15;;;27.50;93.70;;;;;;4161237;28;20041;-66
2023/06/09 08:51:04;;;;;;;7.93;4.50;;;27.60;93.60;;;;;;4156904;28;20300;-65
2023/06/09 08:53:05;;;;;;;8.13;4.35;;;27.60;93.30;;;;;;4151677;28;20038;-66
2023/06/09 08:55:08;;;;;;;5.47;4.32;;;27.70;93.70;;;;;;4160266;28;20116;-67
2023/06/09 08:57:09;;;;;;;6.75;3.88;;;27.80;94.30;;;;;;4159542;28;20435;-65
2023/06/09 08:59:09;;;;;;;5.47;3.88;;;27.90;94.40;;;;;;4164012;28;20037;-65
2023/06/09 09:01:11;;;;;;;7.75;4.30;;;28.00;93.20;;;;;;4160015;28;20060;-66
2023/06/09 09:03:11;;;;;;;6.97;4.43;;;28.10;91.20;;;;;;4161396;28;20423;-66
2023/06/09 09:05:12;;;;;;;6.70;3.45;;;28.10;91.20;;;;;;4160548;28;20121;-66
2023/06/09 09:07:13;;;;;;;9.27;4.38;;;28.20;91.30;;;;;;4163549;28;20045;-66
2023/06/09 09:09:15;;;;;;;4.90;3.53;;;28.20;89.20;;;;;;4160886;28;20525;-65
2023/06/09 09:11:16;;;;;;;5.25;4.00;;;28.30;90.00;;;;;;4162736;28;20049;-65
2023/06/09 09:13:18;;;;;;;6.00;4.18;;;28.30;90.60;;;;;;4163197;28;20064;-66
2023/06/09 09:15:18;;;;;;;5.75;4.05;;;28.30;90.80;;;;;;4161813;28;20877;-65
2023/06/09 09:17:20;;;;;;;5.80;3.95;;;28.40;91.60;;;;;;4162530;28;20060;-65
2023/06/09 09:19:28;;;;;;;7.22;4.35;;;28.40;90.10;;;;;;4160605;28;20040;-66
2023/06/09 09:21:29;;;;;;;10.32;4.78;;;28.50;89.10;;;;;;4161429;28;20052;-66
2023/06/09 09:23:33;;;;;;;7.95;4.50;;;28.60;88.10;;;;;;4164682;28;20053;-67
2023/06/09 09:25:33;;;;;;;8.63;4.88;;;28.50;89.00;;;;;;4164061;28;20041;-66
2023/06/09 09:27:34;;;;;;;5.85;4.10;;;28.40;88.40;;;;;;4162881;28;20486;-66
2023/06/09 09:29:40;;;;;;;7.53;4.18;;;28.40;89.30;;;;;;4163367;28;20025;-65
2023/06/09 09:31:41;;;;;;;9.27;5.03;;;28.40;87.90;;;;;;4163454;28;20043;-66
2023/06/09 09:33:47;;;;;;;6.53;4.03;;;28.30;87.90;;;;;;4161603;28;20113;-66
2023/06/09 09:35:58;;;;;;;7.50;3.90;;;28.30;87.10;;;;;;4163970;28;20482;-66
2023/06/09 09:37:59;;;;;;;6.22;4.10;;;28.30;86.50;;;;;;4166143;28;20029;-66
2023/06/09 09:39:59;;;;;;;6.63;4.45;;;28.30;85.40;;;;;;4170217;28;20373;-68
2023/06/09 09:42:06;;;;;;;5.40;4.07;;;28.30;87.10;;;;;;4165002;28;20120;-66
2023/06/09 09:44:16;;;;;;;5.63;4.05;;;28.30;85.80;;;;;;4169376;28;20041;-66
2023/06/09 09:46:19;;;;;;;7.38;4.60;;;28.30;86.00;;;;;;4164344;28;20049;-66
2023/06/09 09:48:23;;;;;;;6.70;4.25;;;28.20;85.80;;;;;;4166307;28;20053;-66
2023/06/09 09:50:23;;;;;;;5.00;3.63;;;28.30;86.30;;;;;;4162772;28;20428;-66
2023/06/09 09:52:26;;;;;;;5.80;3.80;;;28.20;82.40;;;;;;4168709;28;20061;-66
2023/06/09 09:54:27;;;;;;;4.05;3.40;;;28.30;84.20;;;;;;4168887;28;20072;-66
2023/06/09 09:56:28;;;;;;;6.72;3.33;;;28.30;84.00;;;;;;4165101;28;20542;-66
2023/06/09 09:58:35;;;;;;;4.20;3.80;;;28.50;86.80;;;;;;4166368;28;20056;-66
2023/06/09 10:00:38;;;;;;;4.82;3.58;;;28.50;83.80;;;;;;4164514;28;20078;-66
2023/06/09 10:02:45;;;;;;;;;;;28.50;84.80;;;;;;4166288;28;20133;-66
2023/06/09 10:04:46;;;;;;;3.63;2.85;;;28.50;84.10;;;;;;4167844;28;20006;-66
2023/06/09 10:06:47;;;;;;;4.40;3.30;;;28.60;85.10;;;;;;4164087;28;20095;-66
2023/06/09 10:08:48;;;;;;;5.85;3.78;;;28.40;84.30;;;;;;4165581;28;20488;-66
2023/06/09 10:10:51;;;;;;;3.95;3.55;;;28.60;85.90;;;;;;4168804;28;20072;-66
2023/06/09 10:12:52;;;;;;;4.93;3.40;;;28.60;83.40;;;;;;4169587;28;20531;-66
2023/06/09 10:14:53;;;;;;;5.13;4.10;;;28.70;84.30;;;;;;4162038;28;20041;-65
2023/06/09 10:16:54;;;;;;;4.78;3.70;;;28.70;84.00;;;;;;4161199;28;20026;-66
2023/06/09 10:18:56;;;;;;;5.63;4.15;;;28.70;83.20;;;;;;4162023;28;20038;-66
2023/06/09 10:20:57;;;;;;;5.05;3.50;;;28.70;83.20;;;;;;4163579;28;20054;-66
2023/06/09 10:22:58;;;;;;;6.10;4.43;;;28.80;83.70;;;;;;4162140;28;20147;-65
2023/06/09 10:25:00;;;;;;;4.93;3.92;;;28.70;82.50;;;;;;4163777;28;20029;-66
2023/06/09 10:27:02;;;;;;;5.18;3.65;;;28.70;82.50;;;;;;4164681;28;20503;-65
2023/06/09 10:29:09;;;;;;;5.80;4.00;;;28.90;84.20;;;;;;4163473;28;20045;-68
2023/06/09 10:31:12;;;;;;;7.43;3.83;;;28.80;84.00;;;;;;4164686;28;20033;-66
2023/06/09 10:33:29;;;;;;;7.10;3.72;;;28.90;84.40;;;;;;4166648;28;20037;-66
2023/06/09 10:35:31;;;;;;;4.07;3.50;;;28.90;83.40;;;;;;4162280;28;21054;-66